Fergusonville, New York
Current Conditions -  °F | °C
As of 8:35 AM on Saturday 20 Dec 2014 (Local Time) from KNY0 Reporting Station
Clear Clear  
Wind Chill: 16°   Ceiling: Unl
Heat Index: 16°   Visibility: 10mi
Dew Point: 13°   Wind: 0mph
Humidity: 89%   Direction: NA
Pressure: 30.29"   Gusts: NA
Location:  42.6052°N, 74.8141°W
Report Text: KNY0 201335Z AUTO 00000KT 10SM CLR M09/M10 A3029 RMK AO2 T10881103
Loading
Personal Weather Stations






























Interactive Weather Map New forecast layout! Learn more

10-Day Weather Forecast

Advertisements
Track Severe Weather on mobile